Terminal Aerodrome Forecast
Issued by NWS Charleston, WV

Current Version | Previous Version | Graphics & Text | Print | Product List | Glossary On
Versions: 1 2 3 4 5 6 7 8 9 10 11 12 13 14 15 16 17 18 19 20 21 22 23 24 25
266
FTUS41 KRLX 191428 AAA
TAFEKN
TAF AMD
KEKN 191428Z 1914/2012 00000KT 2SM BR BKN002
      TEMPO 1914/1915 5SM BR SCT003
     FM191500 VRB03KT P6SM SCT040
     FM200500 00000KT 5SM BR SCT150
     FM200600 00000KT 1/4SM FG VV002=

USA.gov is the U.S. government's official web portal to all federal, state and local government web resources and services.